Tiempo atmosférico en la estación meteorológica de Córdoba, Prágdena, Córdoba (275 m.)



Fecha
DESCASC
Temp. máxima en grados centígrados (hora)
DESCASC
Temp. mínima en grados centígrados (hora)
DESCASC
Temp. media en grados centígrados
DESCASC
Racha de viento máxima en m/sg (hora)
DESCASC
Velocidad máxima media en intervalos de 10 minutos(hora)
DESCASC
Precipitaciones diarias en mm
DESCASC
Precipitaciones de 00:00 a 06:00 en mm
DESCASC
Precipitaciones de 06:00 a 12:00 en mm
DESCASC
Precipitaciones de 12:00 a 18:00 en mm
DESCASC
Precipitaciones de 18:00 a 24:00 en mm
DESCASC
31-03-2020 17 (13:40) 10 (05:30) 13.5 9.72 (17:30) 5 (11:50) 41.6 16.2 0.8 11 13.6
30-03-2020 17.9 (16:30) 10.7 (05:20) 14.3 8.61 (18:10) 5.83 (18:10) 7.8 0 0 0 7.8
29-03-2020 20.7 (17:10) 7 (00:00) 13.9 5.28 (19:10) 3.89 (19:10) 0 0 0 0 0
28-03-2020 19.6 (17:20) 5.4 (00:00) 12.5 5.56 (16:40) 3.61 (00:20) 0 0 0 0 0
27-03-2020 16.9 (14:10) 8.4 (00:00) 12.6 13.33 (13:20) 8.06 (15:50) 0 0 0 0 0
26-03-2020 20.8 (17:30) 11.2 (00:00) 16 11.11 (16:40) 7.5 (17:10) 0.2 0.2 0 0 0
25-03-2020 19.1 (14:40) 9.6 (00:00) 14.4 8.33 (16:50) 5.28 (17:30) 0 0 0 0 0
24-03-2020 19 (15:20) 9 (00:00) 14 11.39 (11:00) 7.78 (11:40) 0.2 0 0.2 0 0
23-03-2020 17.3 (15:20) 6.7 (00:00) 12 17.22 (18:00) 12.5 (18:00) 9.2 0 0 4.4 4.8
22-03-2020 14.7 (17:00) 6.7 (02:50) 10.7 7.22 (17:40) 5 (17:50) 0.8 0.2 0.6 0 0
21-03-2020 15.7 (15:20) 8 (00:00) 11.8 11.67 (03:40) 6.39 (03:40) 13.6 8.2 0.6 2.4 2.4
20-03-2020 19.5 (14:40) 9.2 (00:00) 14.3 7.78 (21:30) 4.17 (21:30) 0 0 0 0 0
19-03-2020 20.2 (17:40) 10 (00:00) 15.1 6.67 (11:50) 3.89 (13:20) 0 0 0 0 0
18-03-2020 23.2 (16:00) 13 (00:00) 18.1 13.06 (08:50) 9.17 (12:00) 0 0 0 0 0
17-03-2020 18.1 (15:00) 6.2 (00:00) 12.2 10.83 (22:20) 7.5 (23:20) 2.4 2.2 0.2 0 0
16-03-2020 15.6 (00:00) 6.3 (00:00) 11 9.72 (01:10) 5.83 (01:20) 3.6 2.6 0 0.4 0.6
15-03-2020 22.9 (16:20) 9.6 (00:00) 16.3 9.17 (23:59) 5.56 (23:50) 0 0 0 0 0
14-03-2020 23.2 (17:00) 10.5 (00:00) 16.9 6.11 (17:20) 4.17 (17:50) 0 0 0 0 0
13-03-2020 22.5 (17:20) 9.5 (07:30) 16 7.22 (15:10) 4.44 (17:50) 0 0 0 0 0
12-03-2020 27.6 (15:20) 11.5 (00:00) 19.6 8.89 (18:00) 6.39 (18:00) 0 0 0 0 0
11-03-2020 28 (15:20) 9.4 (00:00) 18.7 6.94 (09:10) 4.72 (09:10) 0 0 0 0 0
10-03-2020 26.7 (17:20) 8.8 (00:00) 17.8 7.22 (12:30) 4.44 (12:30) 0 0 0 0 0
09-03-2020 21.8 (17:20) 6.4 (00:00) 14.1 5.56 (21:50) 3.89 (21:50) 0 0 0 0 0
08-03-2020 22.5 (16:40) 3.5 (00:00) 13 5 (18:00) 3.61 (18:10) 0 0 0 0 0
07-03-2020 18 (17:10) 3.2 (00:00) 10.6 8.33 (13:50) 6.11 (10:40) 0 0 0 0 0
06-03-2020 17.6 (16:00) 5.5 (00:00) 11.6 11.67 (14:50) 6.94 (12:10) 0 0 0 0 0
05-03-2020 17.9 (17:30) 6.4 (00:00) 12.1 10 (16:50) 6.67 (17:50) 0 0 0 0 0
04-03-2020 20.4 (17:40) 11.1 (00:00) 15.8 6.67 (01:30) 4.17 (01:30) 0.2 0 0.2 0 0
03-03-2020 16.9 (17:30) 6.1 (00:00) 11.5 9.72 (14:00) 5.28 (13:50) 0 0 0 0 0

Gráficas

Temp. máximas Temp. mínimas Temp. medias Precipitaciones Rachas de viento máximas Velocidades máximas media en intervalos de 10 minutos

Datos horarios

Fecha y hora oficial Temperatura (ºC) Velocidad del viento (km/h) Dirección del viento Racha (km/h) Dirección de racha Precipitación (mm) Presión (hPa) Tendencia (hPa) Humedad (%)
2020-04-01 23:00:00 9.2 0 Calma 11 Sur 0 -- -- 91
2020-04-01 22:00:00 9.9 6 Sur 24 Sudoeste 0.2 -- -- 90
2020-04-01 21:00:00 10.9 14 Sudoeste 23 Sudoeste 0 -- -- 84
2020-04-01 20:00:00 12.1 13 Oeste 26 Sudoeste 0.2 -- -- 82
2020-04-01 19:00:00 11.6 19 Sudoeste 41 Sudoeste 0 -- -- 83
2020-04-01 18:00:00 15.9 12 Oeste 28 Sudoeste 0 -- -- 56
2020-04-01 17:00:00 14.9 15 Oeste 29 Oeste 0 -- -- 58
2020-04-01 16:00:00 15.5 18 Sudoeste 51 Oeste 0 -- -- 60
2020-04-01 15:00:00 15.3 13 Sudoeste 27 Sudoeste 0 -- -- 61
2020-04-01 14:00:00 14.5 14 Sudoeste 23 Sudoeste 0 -- -- 70
2020-04-01 13:00:00 12.6 13 Oeste 21 Sudoeste 0 -- -- 80
2020-04-01 12:00:00 12.1 11 Sudoeste 18 Sudoeste 0 -- -- 84
2020-04-01 11:00:00 10.6 5 Sur 9 Sudeste 0 -- -- 95
2020-04-01 10:00:00 9.9 3 Sudoeste 8 Oeste 0 -- -- 98
2020-04-01 09:00:00 9.1 3 Sudoeste 6 Sudoeste 0 -- -- 98
2020-04-01 08:00:00 9 4 Sudoeste 6 Sur 0 -- -- 98
2020-04-01 07:00:00 8.7 3 Sudeste 5 Sudeste 0.2 -- -- 97
2020-04-01 06:00:00 9.2 2 Sur 8 Sur 0 -- -- 97
2020-04-01 05:00:00 9.5 2 Oeste 12 Sur 0 -- -- 96
2020-04-01 04:00:00 10.3 9 Sudoeste 14 Sur 0 -- -- 96
2020-04-01 03:00:00 10.6 5 Sudoeste 17 Sudoeste 0 -- -- 94
2020-04-01 02:00:00 11.2 8 Sudoeste 18 Sudoeste 0 -- -- 95
2020-04-01 01:00:00 11.6 13 Sudoeste 22 Sur 0.2 -- -- 95
2020-04-01 00:00:00 11.8 10 Sur 21 Sudoeste 0.2 -- -- 94
2020-03-31 23:00:00 11.9 12 Sudoeste 25 Sudoeste 0 -- -- 93
2020-03-31 22:00:00 12.6 13 Sur 22 Sur 0.4 -- -- 94
2020-03-31 21:00:00 12.6 11 Sur 33 Sudoeste 0.6 -- -- 93
2020-03-31 20:00:00 13.2 12 Sudoeste 26 Sudoeste 4.2 -- -- 92
2020-03-31 19:00:00 13.6 5 Sur 29 Sudoeste 8.2 -- -- 91
2020-03-31 18:00:00 14.5 10 Sur 35 Sudoeste 5.4 -- -- 88
2020-03-31 17:00:00 16.4 8 Sudoeste 15 Sudoeste 0.4 -- -- 81
2020-03-31 16:00:00 15.6 7 Sur 30 Sudoeste 1 -- -- 81
2020-03-31 15:00:00 13.1 12 Sudoeste 31 Sur 4.2 -- -- 90
2020-03-31 14:00:00 16.9 15 Sur 30 Sur 0 -- -- 70
2020-03-31 13:00:00 15.4 9 Sur 26 Sudoeste 0 -- -- 75
2020-03-31 12:00:00 14.2 17 Sur 32 Sur 0 -- -- 77
2020-03-31 11:00:00 13.9 14 Sur 27 Sur 0 -- -- 82
2020-03-31 10:00:00 11.8 9 Sur 19 Sur 0 -- -- 88
2020-03-31 09:00:00 10.7 8 Sur 26 Sur 0.2 -- -- 91
2020-03-31 08:00:00 10.5 8 Sur 15 Sudoeste 0.6 -- -- 92
2020-03-31 07:00:00 10.4 9 Sudeste 18 Este 0 -- -- 91
2020-03-31 06:00:00 10.1 12 Este 27 Nordeste 0 -- -- 96
2020-03-31 05:00:00 10.2 12 Este 20 Este 4.4 -- -- 97
2020-03-31 04:00:00 10.3 7 Este 17 Este 5 -- -- 97
2020-03-31 03:00:00 10.5 8 Este 15 Este 3 -- -- 97
2020-03-31 02:00:00 10.5 13 Este 21 Este 1.2 -- -- 96
2020-03-31 01:00:00 10.5 11 Nordeste 27 Nordeste 2.6 -- -- 95
2020-03-31 00:00:00 10.9 7 Este 21 Este 2.6 -- -- 95
2020-03-30 23:00:00 11 3 Sudeste 9 Este 0.2 -- -- 94
2020-03-30 22:00:00 11.3 3 Este 5 Este 0.8 -- -- 93
2020-03-30 21:00:00 11.4 0 Calma 14 Oeste 2 -- -- 91
2020-03-30 20:00:00 11.8 12 Oeste 31 Sudoeste 2.2 -- -- 91
2020-03-30 19:00:00 15.7 9 Sudoeste 31 Oeste 0 -- -- 69
2020-03-30 18:00:00 16.8 19 Oeste 27 Oeste 0 -- -- 60
2020-03-30 17:00:00 17.1 15 Oeste 23 Oeste 0 -- -- 60
2020-03-30 16:00:00 17.3 9 Oeste 23 Sudoeste 0 -- -- 60
2020-03-30 15:00:00 17.2 7 Sudoeste 16 Oeste 0 -- -- 60
2020-03-30 14:00:00 16.5 2 Norte 10 Noroeste 0 -- -- 65
2020-03-30 13:00:00 15.1 6 Oeste 12 Sudoeste 0 -- -- 70
2020-03-30 12:00:00 14 8 Sudoeste 18 Sudoeste 0 -- -- 75
2020-03-30 11:00:00 13 6 Sudoeste 12 Oeste 0 -- -- 83
2020-03-30 10:00:00 12.1 4 Oeste 6 Sudoeste 0 -- -- 89
2020-03-30 09:00:00 11.6 2 Sudoeste 15 Sudoeste 0 -- -- 91
2020-03-30 08:00:00 11.3 8 Sudoeste 15 Sudoeste 0 -- -- 92
2020-03-30 07:00:00 11.1 6 Sudoeste 15 Sudoeste 0 -- -- 92
2020-03-30 06:00:00 10.7 8 Sudoeste 13 Sudoeste 0 -- -- 92
2020-03-30 05:00:00 10.8 6 Sudoeste 13 Sudoeste 0 -- -- 90
2020-03-30 04:00:00 11.2 7 Sudoeste 13 Sudoeste 0 -- -- 88
2020-03-30 03:00:00 11.5 9 Sudoeste 13 Sudoeste 0 -- -- 85
2020-03-30 02:00:00 11.8 6 Sur 14 Sudoeste 0 -- -- 82
2020-03-30 01:00:00 12.5 9 Sur 13 Sur 0 -- -- 75
2020-03-30 00:00:00 13.4 6 Sur 10 Sudoeste 0 -- -- 63
2020-03-29 23:00:00 14.1 5 Sudoeste 10 Oeste 0 -- -- 60
2020-03-29 22:00:00 15.1 9 Oeste 14 Oeste 0 -- -- 57
2020-03-29 21:00:00 16.5 5 Oeste 11 Oeste 0 -- -- 51
2020-03-29 20:00:00 18 9 Oeste 19 Oeste 0 -- -- 45
2020-03-29 19:00:00 19.3 11 Oeste 17 Oeste 0 -- -- 40
2020-03-29 18:00:00 20 10 Oeste 18 Oeste 0 -- -- 36
2020-03-29 17:00:00 20.6 6 Sur 17 Oeste 0 -- -- 34
2020-03-29 16:00:00 19.9 7 Sudoeste 13 Oeste 0 -- -- 38
2020-03-29 15:00:00 19.1 3 Sudeste 10 Sudeste 0 -- -- 49
2020-03-29 14:00:00 17.7 4 Sur 11 Oeste 0 -- -- 57
2020-03-29 13:00:00 16 4 Sudoeste 12 Oeste 0 -- -- 61
2020-03-29 12:00:00 14.3 4 Sur 8 Sur 0 -- -- 67
2020-03-29 11:00:00 11.8 0 Calma 10 Sudoeste 0 -- -- 81
2020-03-29 10:00:00 9.3 5 Nordeste 8 Norte 0 -- -- 87
2020-03-29 09:00:00 8.1 6 Norte 8 Norte 0 -- -- 89
2020-03-29 08:00:00 7.6 5 Nordeste 9 Nordeste 0 -- -- 90
2020-03-29 07:00:00 7.4 5 Norte 7 Norte 0 -- -- 90
2020-03-29 06:00:00 8.6 3 Sudoeste 5 Sudoeste 0 -- -- 88
2020-03-29 05:00:00 8.5 3 Sudoeste 6 Sur 0 -- -- 87
2020-03-29 03:00:00 9.9 2 Sur 7 Sur 0 -- -- 80
2020-03-29 01:00:00 10.6 0 Calma 12 Sudoeste 0 -- -- 78
2020-03-29 00:00:00 11.3 9 Sudoeste 18 Sudoeste 0 -- -- 75
2020-03-28 23:00:00 11.9 9 Sudoeste 17 Sudoeste 0 -- -- 74
2020-03-28 22:00:00 12.8 7 Sudoeste 12 Sudoeste 0 -- -- 70
2020-03-28 21:00:00 14.2 8 Sudoeste 16 Sudoeste 0 -- -- 63
2020-03-28 20:00:00 16.5 5 Oeste 8 Norte 0 -- -- 46
2020-03-28 19:00:00 18.9 4 Noroeste 14 Norte 0 -- -- 39
2020-03-28 18:00:00 19.4 5 Noroeste 15 Noroeste 0 -- -- 37
2020-03-28 17:00:00 19.4 4 Noroeste 20 Norte 0 -- -- 40
2020-03-28 16:00:00 18.4 4 Nordeste 16 Oeste 0 -- -- 41
2020-03-28 15:00:00 18.4 6 Noroeste 19 Norte 0 -- -- 44
2020-03-28 14:00:00 18.1 5 Sudoeste 15 Noroeste 0 -- -- 47
2020-03-28 13:00:00 16.2 8 Norte 15 Norte 0 -- -- 52
2020-03-28 12:00:00 15.5 6 Nordeste 14 Norte 0 -- -- 57
2020-03-28 11:00:00 13.5 8 Nordeste 17 Nordeste 0 -- -- 64
2020-03-28 10:00:00 11.1 9 Nordeste 19 Nordeste 0 -- -- 72
2020-03-28 09:00:00 8.8 12 Nordeste 18 Nordeste 0 -- -- 77
2020-03-28 08:00:00 6.1 9 Nordeste 15 Nordeste 0 -- -- 86
2020-03-28 07:00:00 5.6 8 Nordeste 13 Nordeste 0 -- -- 83
2020-03-28 06:00:00 5.7 9 Nordeste 14 Nordeste 0 -- -- 83
2020-03-28 05:00:00 6 9 Nordeste 15 Nordeste 0 -- -- 82
2020-03-28 04:00:00 6.8 8 Nordeste 13 Nordeste 0 -- -- 79
2020-03-28 03:00:00 7.6 8 Nordeste 13 Norte 0 -- -- 77
2020-03-28 02:00:00 9 9 Norte 15 Nordeste 0 -- -- 71
2020-03-28 01:00:00 10.3 10 Nordeste 19 Nordeste 0 -- -- 67
2020-03-28 00:00:00 10.9 8 Norte 19 Norte 0 -- -- 67
2020-03-27 23:00:00 11.2 9 Norte 19 Norte 0 -- -- 66
2020-03-27 22:00:00 11.9 10 Norte 22 Noroeste 0 -- -- 64
2020-03-27 21:00:00 12.7 17 Norte 27 Noroeste 0 -- -- 60
2020-03-27 20:00:00 13.8 5 Noroeste 19 Oeste 0 -- -- 63
2020-03-27 19:00:00 14.9 17 Oeste 30 Oeste 0 -- -- 56
2020-03-27 18:00:00 16.4 21 Sudoeste 37 Sudoeste 0 -- -- 49
2020-03-27 17:00:00 16.6 24 Sudoeste 39 Oeste 0 -- -- 50
2020-03-27 16:00:00 16.5 28 Oeste 43 Oeste 0 -- -- 47
2020-03-27 15:00:00 16.3 27 Oeste 43 Sudoeste 0 -- -- 48
2020-03-27 14:00:00 16.3 25 Oeste 48 Sudoeste 0 -- -- 47
2020-03-27 13:00:00 16 25 Sudoeste 38 Sudoeste 0 -- -- 49
2020-03-27 12:00:00 13.5 18 Oeste 27 Oeste 0 -- -- 75
2020-03-27 11:00:00 11.8 12 Oeste 20 Oeste 0 -- -- 85
2020-03-27 10:00:00 11.1 11 Sudoeste 19 Sudoeste 0 -- -- 87
2020-03-27 09:00:00 9.9 10 Sudoeste 19 Sudoeste 0 -- -- 93
2020-03-27 08:00:00 9.2 4 Sudoeste 12 Sur 0 -- -- 95
2020-03-27 07:00:00 8.6 7 Sudoeste 14 Sudoeste 0 -- -- 93
2020-03-27 06:00:00 9.3 9 Sudoeste 17 Sudoeste 0 -- -- 90
2020-03-27 05:00:00 9.5 12 Sudoeste 17 Sudoeste 0 -- -- 89
2020-03-27 04:00:00 10 7 Sudoeste 10 Sudoeste 0 -- -- 89
2020-03-27 03:00:00 10.7 8 Sudoeste 11 Sur 0 -- -- 88
2020-03-27 02:00:00 10.9 7 Sur 10 Sur 0 -- -- 87
2020-03-27 01:00:00 11.5 4 Sur 14 Sur 0 -- -- 86
2020-03-27 00:00:00 12.2 7 Sudoeste 13 Sudoeste 0 -- -- 82
2020-03-26 23:00:00 13.1 9 Sudoeste 18 Sur 0 -- -- 65
2020-03-26 22:00:00 14.6 9 Noroeste 17 Noroeste 0 -- -- 53
2020-03-26 21:00:00 15.8 10 Oeste 15 Oeste 0 -- -- 48
2020-03-26 20:00:00 16.6 10 Oeste 15 Oeste 0 -- -- 49
2020-03-26 19:00:00 19.3 12 Oeste 33 Sudoeste 0 -- -- 45
2020-03-26 18:00:00 20.5 23 Sudoeste 38 Sudoeste 0 -- -- 47
2020-03-26 17:00:00 20.6 23 Sudoeste 40 Sudoeste 0 -- -- 51
2020-03-26 16:00:00 20.4 19 Sudoeste 37 Sudoeste 0 -- -- 52
2020-03-26 15:00:00 19.6 18 Sudoeste 35 Sudoeste 0 -- -- 56
2020-03-26 14:00:00 18.1 18 Sudoeste 31 Oeste 0 -- -- 62
2020-03-26 13:00:00 16.8 15 Sudoeste 32 Sudoeste 0 -- -- 67
2020-03-26 12:00:00 15.1 17 Sudoeste 30 Sudoeste 0 -- -- 70
2020-03-26 11:00:00 13.9 14 Sudoeste 31 Sudoeste 0 -- -- 81
2020-03-26 10:00:00 12.7 14 Sudoeste 25 Sudoeste 0 -- -- 91
2020-03-26 09:00:00 11.8 16 Sudoeste 24 Sudoeste 0 -- -- 95
2020-03-26 08:00:00 11.3 12 Sudoeste 23 Sudoeste 0 -- -- 94
2020-03-26 07:00:00 11.3 13 Sudoeste 24 Sudoeste 0 -- -- 95
2020-03-26 06:00:00 11.3 13 Sudoeste 23 Sudoeste 0 -- -- 96
2020-03-26 05:00:00 11.7 10 Sudoeste 24 Sudoeste 0.2 -- -- 97
2020-03-26 04:00:00 11.5 15 Sudoeste 32 Oeste 0 -- -- 96
2020-03-26 03:00:00 11.9 18 Sudoeste 33 Sudoeste 0 -- -- 93
2020-03-26 02:00:00 12.2 17 Sudoeste 30 Sudoeste 0 -- -- 89
2020-03-26 01:00:00 11.7 13 Sudoeste 24 Sur 0 -- -- 89
2020-03-26 00:00:00 11.9 12 Sudoeste 21 Sudoeste 0 -- -- 87
2020-03-25 23:00:00 12.1 8 Sudoeste 17 Sudoeste 0 -- -- 84
2020-03-25 22:00:00 12.2 8 Sudoeste 12 Sur 0 -- -- 82
2020-03-25 21:00:00 13.2 10 Sur 19 Sur 0 -- -- 78
2020-03-25 20:00:00 14.5 11 Sudoeste 21 Sudoeste 0 -- -- 73
2020-03-25 19:00:00 16.9 13 Sudoeste 25 Sur 0 -- -- 63
2020-03-25 18:00:00 17.9 15 Sur 30 Sur 0 -- -- 61
2020-03-25 17:00:00 18.1 17 Sudoeste 30 Sudoeste 0 -- -- 56
2020-03-25 16:00:00 18.3 16 Sudoeste 26 Sudoeste 0 -- -- 54
2020-03-25 15:00:00 19.1 13 Oeste 22 Oeste 0 -- -- 40
2020-03-25 14:00:00 18.7 5 Oeste 19 Sur 0 -- -- 44
2020-03-25 13:00:00 17.5 4 Sur 10 Sur 0 -- -- 42
2020-03-25 12:00:00 15.9 4 Sudoeste 12 Sur 0 -- -- 57
2020-03-25 11:00:00 15 4 Este 12 Nordeste 0 -- -- 57
2020-03-25 10:00:00 12.9 8 Nordeste 13 Nordeste 0 -- -- 61
2020-03-25 09:00:00 11.1 6 Nordeste 11 Norte 0 -- -- 73
2020-03-25 08:00:00 10 5 Nordeste 11 Nordeste 0 -- -- 77
2020-03-25 07:00:00 9.6 7 Norte 12 Nordeste 0 -- -- 76
2020-03-25 06:00:00 9.8 8 Nordeste 15 Nordeste 0 -- -- 74
2020-03-25 05:00:00 10.4 8 Nordeste 24 Nordeste 0 -- -- 71
2020-03-25 04:00:00 11.3 15 Nordeste 26 Nordeste 0 -- -- 70
2020-03-25 03:00:00 11.8 13 Nordeste 29 Nordeste 0 -- -- 70
2020-03-25 02:00:00 11.9 13 Nordeste 27 Nordeste 0 -- -- 70
2020-03-25 01:00:00 11.9 12 Nordeste 23 Norte 0 -- -- 71
2020-03-25 00:00:00 12.6 12 Nordeste 33 Nordeste 0 -- -- 68
2020-03-24 23:00:00 13.2 16 Nordeste 31 Nordeste 0 -- -- 67
2020-03-24 22:00:00 13.2 12 Nordeste 21 Nordeste 0 -- -- 69
2020-03-24 21:00:00 13.3 9 Nordeste 15 Nordeste 0 -- -- 68
2020-03-24 20:00:00 14.5 10 Este 31 Este 0 -- -- 63
2020-03-24 19:00:00 17.2 14 Este 31 Nordeste 0 -- -- 55
2020-03-24 18:00:00 17.9 15 Nordeste 36 Este 0 -- -- 53
2020-03-24 17:00:00 18.2 22 Nordeste 33 Este 0 -- -- 53
2020-03-24 16:00:00 19 24 Nordeste 38 Nordeste 0 -- -- 50
2020-03-24 15:00:00 18.6 23 Nordeste 35 Este 0 -- -- 52
2020-03-24 14:00:00 18.2 24 Nordeste 39 Nordeste 0 -- -- 60
2020-03-24 13:00:00 17 24 Nordeste 39 Este 0 -- -- 65
2020-03-24 12:00:00 15.1 24 Nordeste 41 Nordeste 0 -- -- 64
2020-03-24 11:00:00 13.4 25 Nordeste 41 Nordeste 0 -- -- 71
2020-03-24 10:00:00 12.5 18 Nordeste 32 Nordeste 0.2 -- -- 74
2020-03-24 09:00:00 11.3 13 Nordeste 25 Norte 0 -- -- 78
2020-03-24 08:00:00 9.6 12 Norte 22 Nordeste 0 -- -- 84
2020-03-24 07:00:00 9.1 15 Nordeste 24 Norte 0 -- -- 87
2020-03-24 06:00:00 9.6 14 Nordeste 24 Nordeste 0 -- -- 87
2020-03-24 05:00:00 9.5 11 Nordeste 23 Norte 0 -- -- 89
2020-03-24 04:00:00 9.6 10 Nordeste 19 Nordeste 0 -- -- 94
2020-03-24 03:00:00 9.8 12 Norte 19 Norte 0 -- -- 95
2020-03-24 02:00:00 9.9 11 Norte 19 Norte 0 -- -- 95
2020-03-24 01:00:00 10 9 Norte 15 Norte 0 -- -- 95
2020-03-24 00:00:00 10.3 7 Nordeste 14 Nordeste 0 -- -- 93
2020-03-23 23:00:00 10.3 6 Nordeste 10 Nordeste 0 -- -- 96
2020-03-23 22:00:00 10 5 Norte 12 Norte 0 -- -- 95
2020-03-23 21:00:00 10.3 7 Norte 10 Norte 0 -- -- 94
2020-03-23 20:00:00 10.2 5 Nordeste 13 Norte 0 -- -- 93
2020-03-23 19:00:00 9.6 5 Sur 42 Este 4.8 -- -- 91
2020-03-23 18:00:00 11.2 45 Este 62 Este 4.4 -- -- 77
2020-03-23 17:00:00 17.2 7 Sudeste 19 Este 0 -- -- 45
2020-03-23 16:00:00 16.9 10 Nordeste 22 Nordeste 0 -- -- 51
2020-03-23 15:00:00 16.7 6 Este 20 Este 0 -- -- 49
2020-03-23 14:00:00 16.1 7 Nordeste 22 Este 0 -- -- 56
2020-03-23 13:00:00 16 11 Nordeste 20 Este 0 -- -- 57
2020-03-23 12:00:00 14.6 11 Nordeste 21 Nordeste 0 -- -- 67
2020-03-23 11:00:00 11.8 9 Nordeste 17 Este 0 -- -- 83
2020-03-23 10:00:00 10.8 9 Nordeste 25 Nordeste 0 -- -- 86
2020-03-23 09:00:00 8.2 5 Nordeste 10 Nordeste 0 -- -- 97
2020-03-23 08:00:00 7.4 8 Nordeste 12 Nordeste 0 -- -- 95
2020-03-23 07:00:00 7.1 5 Nordeste 12 Este 0 -- -- 95
2020-03-23 06:00:00 7.6 8 Nordeste 13 Norte 0 -- -- 95
2020-03-23 05:00:00 8.7 4 Nordeste 7 Nordeste 0 -- -- 91
2020-03-23 04:00:00 9.2 2 Este 9 Nordeste 0 -- -- 91
2020-03-23 03:00:00 9 5 Nordeste 10 Nordeste 0 -- -- 92
2020-03-23 02:00:00 8.9 6 Nordeste 9 Nordeste 0 -- -- 92
2020-03-23 01:00:00 9 5 Nordeste 8 Nordeste 0 -- -- 92
2020-03-23 00:00:00 8.9 5 Norte 9 Norte 0 -- -- 92
2020-03-22 23:00:00 9.2 0 Calma 8 Sur 0 -- -- 87
2020-03-22 22:00:00 9.7 2 Sudoeste 8 Sur 0 -- -- 86
2020-03-22 21:00:00 10.6 0 Calma 9 Sudeste 0 -- -- 86
2020-03-22 20:00:00 11.2 4 Este 11 Este 0 -- -- 85
2020-03-22 19:00:00 11.4 0 Calma 17 Norte 0 -- -- 82
2020-03-22 18:00:00 11.7 15 Norte 26 Norte 0 -- -- 78
2020-03-22 17:00:00 14.7 8 Oeste 14 Oeste 0 -- -- 60
2020-03-22 16:00:00 14.3 6 Oeste 11 Oeste 0 -- -- 64
2020-03-22 15:00:00 13.3 2 Este 10 Nordeste 0 -- -- 69
2020-03-22 14:00:00 12.8 2 Oeste 12 Oeste 0 -- -- 75
2020-03-22 13:00:00 11.8 4 Oeste 11 Sudoeste 0 -- -- 80
2020-03-22 12:00:00 10.5 4 Oeste 9 Norte 0 -- -- 83
2020-03-22 11:00:00 9.2 5 Noroeste 10 Noroeste 0.4 -- -- 94
2020-03-22 10:00:00 8.8 5 Norte 9 Norte 0 -- -- 94
2020-03-22 09:00:00 8.2 5 Norte 12 Norte 0 -- -- 96
2020-03-22 08:00:00 7.8 4 Norte 10 Nordeste 0 -- -- 96
2020-03-22 07:00:00 7.6 0 Calma 8 Nordeste 0.2 -- -- 95
2020-03-22 06:00:00 7.4 7 Este 14 Nordeste 0.2 -- -- 95
2020-03-22 05:00:00 6.7 5 Este 13 Nordeste 0 -- -- 97
2020-03-22 04:00:00 6.9 5 Norte 10 Nordeste 0 -- -- 95
2020-03-22 03:00:00 6.8 4 Noroeste 10 Nordeste 0 -- -- 95
2020-03-22 02:00:00 6.8 7 Este 13 Nordeste 0 -- -- 91
2020-03-22 01:00:00 7.2 5 Nordeste 6 Nordeste 0 -- -- 91
2020-03-22 00:00:00 8 2 Sudeste 7 Sudeste 0 -- -- 89
2020-03-21 23:00:00 8.4 4 Sudeste 6 Sudeste 0 -- -- 91
2020-03-21 22:00:00 8.5 3 Sudeste 16 Sur 2 -- -- 94
2020-03-21 21:00:00 9.2 13 Sudoeste 27 Oeste 0.4 -- -- 89
2020-03-21 20:00:00 11.2 13 Sur 27 Sudoeste 0 -- -- 81
2020-03-21 19:00:00 11.5 7 Sudeste 27 Sudeste 0 -- -- 82
2020-03-21 18:00:00 10.6 12 Sudeste 21 Sudeste 1 -- -- 90
2020-03-21 17:00:00 10.8 12 Sudoeste 32 Sudoeste 1.2 -- -- 91
2020-03-21 16:00:00 12.5 20 Sudoeste 41 Sudoeste 0.2 -- -- 83
2020-03-21 15:00:00 15.2 10 Sudoeste 20 Sur 0 -- -- 59
2020-03-21 14:00:00 15.5 8 Sudoeste 30 Sudoeste 0 -- -- 58
2020-03-21 13:00:00 14.3 13 Sudoeste 23 Sur 0 -- -- 65
2020-03-21 12:00:00 13.2 10 Sudoeste 20 Sudoeste 0 -- -- 70
2020-03-21 11:00:00 12 8 Sur 18 Sudoeste 0 -- -- 84
2020-03-21 10:00:00 10.4 12 Sur 21 Sudoeste 0 -- -- 91
2020-03-21 09:00:00 9.7 6 Sur 14 Sur 0 -- -- 92
2020-03-21 08:00:00 9.2 5 Sur 10 Sudoeste 0 -- -- 93
2020-03-21 07:00:00 9.1 5 Sudeste 14 Sur 0.6 -- -- 95
2020-03-21 06:00:00 9.3 6 Sur 21 Sudoeste 2.4 -- -- 95
2020-03-21 05:00:00 9.7 12 Sudoeste 33 Sudoeste 3.2 -- -- 94
2020-03-21 04:00:00 10.4 21 Sudoeste 42 Sudoeste 2.6 -- -- 93
2020-03-21 03:00:00 13 5 Oeste 15 Noroeste 0 -- -- 81
2020-03-21 02:00:00 13.3 11 Norte 20 Noroeste 0 -- -- 77
2020-03-21 01:00:00 13.9 4 Norte 14 Este 0 -- -- 73
2020-03-21 00:00:00 13.7 7 Nordeste 9 Sudoeste 0 -- -- 73
2020-03-20 23:00:00 14 4 Sudoeste 14 Sudoeste 0 -- -- 73
2020-03-20 22:00:00 14.3 8 Sudoeste 28 Sudoeste 0 -- -- 71
2020-03-20 21:00:00 15.4 0 Calma 5 Nordeste 0 -- -- 63
2020-03-20 20:00:00 16.3 3 Noroeste 9 Norte 0 -- -- 61
2020-03-20 19:00:00 18 3 Noroeste 10 Oeste 0 -- -- 56
2020-03-20 18:00:00 18.8 5 Oeste 14 Oeste 0 -- -- 54
2020-03-20 17:00:00 18.6 9 Oeste 18 Oeste 0 -- -- 54
2020-03-20 16:00:00 18.8 9 Sudoeste 17 Oeste 0 -- -- 54
2020-03-20 15:00:00 19.1 6 Sur 16 Sudoeste 0 -- -- 51
2020-03-20 14:00:00 18.3 5 Sudoeste 14 Sudoeste 0 -- -- 54
2020-03-20 13:00:00 18 4 Noroeste 12 Nordeste 0 -- -- 54
2020-03-20 12:00:00 17.1 6 Nordeste 22 Nordeste 0 -- -- 53
2020-03-20 11:00:00 15.6 13 Este 21 Este 0 -- -- 58
2020-03-20 10:00:00 14.4 9 Este 14 Este 0 -- -- 68
2020-03-20 09:00:00 11.3 0 Calma 5 Este 0 -- -- 87
2020-03-20 08:00:00 9.6 3 Nordeste 5 Nordeste 0 -- -- 91
2020-03-20 07:00:00 9.2 3 Oeste 6 Este 0 -- -- 91
2020-03-20 06:00:00 9.6 6 Este 10 Nordeste 0 -- -- 90
2020-03-20 05:00:00 10.3 5 Este 7 Este 0 -- -- 88
2020-03-20 04:00:00 10.6 4 Nordeste 5 Noroeste 0 -- -- 87
2020-03-20 03:00:00 11 4 Noroeste 6 Noroeste 0 -- -- 85
2020-03-20 02:00:00 12.1 2 Oeste 13 Oeste 0 -- -- 80
2020-03-20 01:00:00 12 5 Oeste 8 Norte 0 -- -- 81
2020-03-20 00:00:00 12.8 0 Calma 8 Sudoeste 0 -- -- 77
2020-03-19 23:00:00 13.8 6 Sudoeste 15 Sudoeste 0 -- -- 74
2020-03-19 22:00:00 14.4 6 Sudoeste 9 Sudoeste 0 -- -- 73
2020-03-19 21:00:00 15.6 4 Sudoeste 12 Sudoeste 0 -- -- 68
2020-03-19 20:00:00 16.5 5 Sudoeste 17 Sudoeste 0 -- -- 64
2020-03-19 19:00:00 19.5 3 Oeste 7 Nordeste 0 -- -- 48
2020-03-19 18:00:00 20.2 4 Norte 11 Nordeste 0 -- -- 42
2020-03-19 17:00:00 20 6 Nordeste 17 Nordeste 0 -- -- 44
2020-03-19 16:00:00 19.7 11 Nordeste 18 Nordeste 0 -- -- 45
2020-03-19 15:00:00 19.7 10 Nordeste 19 Nordeste 0 -- -- 46
2020-03-19 14:00:00 19.3 10 Nordeste 22 Este 0 -- -- 48
2020-03-19 13:00:00 18.8 13 Este 23 Este 0 -- -- 52
2020-03-19 12:00:00 17.7 11 Este 24 Nordeste 0 -- -- 55
2020-03-19 11:00:00 15.6 9 Norte 15 Nordeste 0 -- -- 64
2020-03-19 10:00:00 13.2 7 Nordeste 12 Norte 0 -- -- 73
2020-03-19 09:00:00 11.1 2 Este 5 Nordeste 0 -- -- 86
2020-03-19 08:00:00 10.1 0 Calma 6 Este 0 -- -- 88
2020-03-19 07:00:00 10.5 3 Nordeste 9 Oeste 0 -- -- 86
2020-03-19 06:00:00 10.9 2 Oeste 13 Oeste 0 -- -- 86
2020-03-19 05:00:00 11.6 6 Noroeste 14 Oeste 0 -- -- 83
2020-03-19 04:00:00 11.4 6 Oeste 12 Oeste 0 -- -- 83
2020-03-19 03:00:00 12.1 9 Oeste 16 Oeste 0 -- -- 77
2020-03-19 02:00:00 12 6 Sudoeste 11 Sur 0 -- -- 71
2020-03-19 01:00:00 12.7 8 Nordeste 17 Nordeste 0 -- -- 68
2020-03-19 00:00:00 13.3 12 Nordeste 19 Nordeste 0 -- -- 67
2020-03-18 23:00:00 14.7 4 Nordeste 18 Este 0 -- -- 62
2020-03-18 22:00:00 16.2 12 Nordeste 33 Este 0 -- -- 57
2020-03-18 21:00:00 17.9 20 Nordeste 34 Nordeste 0 -- -- 51
2020-03-18 20:00:00 19.2 16 Nordeste 32 Nordeste 0 -- -- 45
2020-03-18 19:00:00 20.9 23 Nordeste 35 Nordeste 0 -- -- 42
2020-03-18 18:00:00 22.2 23 Nordeste 39 Nordeste 0 -- -- 39
2020-03-18 17:00:00 23 23 Nordeste 37 Nordeste 0 -- -- 38
2020-03-18 16:00:00 23.2 21 Nordeste 39 Este 0 -- -- 38
2020-03-18 15:00:00 22.3 26 Nordeste 39 Nordeste 0 -- -- 39
2020-03-18 14:00:00 21.2 27 Nordeste 44 Nordeste 0 -- -- 41
2020-03-18 13:00:00 20.2 28 Nordeste 44 Nordeste 0 -- -- 45
2020-03-18 12:00:00 18.9 33 Nordeste 45 Nordeste 0 -- -- 48
2020-03-18 11:00:00 17.7 27 Nordeste 46 Nordeste 0 -- -- 54
2020-03-18 10:00:00 15.7 25 Nordeste 41 Nordeste 0 -- -- 60
2020-03-18 09:00:00 14.4 26 Nordeste 47 Nordeste 0 -- -- 65
2020-03-18 08:00:00 13.6 30 Nordeste 43 Nordeste 0 -- -- 68
2020-03-18 07:00:00 13.3 23 Nordeste 40 Nordeste 0 -- -- 69
2020-03-18 06:00:00 13.6 26 Nordeste 38 Nordeste 0 -- -- 68
2020-03-18 05:00:00 13.4 25 Nordeste 36 Nordeste 0 -- -- 70
2020-03-18 04:00:00 14.2 18 Nordeste 35 Nordeste 0 -- -- 67
2020-03-18 03:00:00 14.3 23 Nordeste 31 Nordeste 0 -- -- 71
2020-03-18 02:00:00 13.8 17 Nordeste 38 Nordeste 0 -- -- 73
2020-03-18 01:00:00 13.9 23 Nordeste 37 Nordeste 0 -- -- 72
2020-03-18 00:00:00 13.2 20 Nordeste 36 Nordeste 0 -- -- 72
2020-03-17 23:00:00 13.4 26 Nordeste 39 Nordeste 0 -- -- 69
2020-03-17 22:00:00 13.7 24 Nordeste 37 Nordeste 0 -- -- 69
2020-03-17 21:00:00 13.6 19 Nordeste 28 Nordeste 0 -- -- 70
2020-03-17 20:00:00 14.5 15 Nordeste 28 Nordeste 0 -- -- 65
2020-03-17 19:00:00 15.6 7 Noroeste 14 Noroeste 0 -- -- 52
2020-03-17 18:00:00 17.1 0 Calma 6 Este 0 -- -- 43
2020-03-17 17:00:00 17.1 6 Sudeste 29 Este 0 -- -- 45
2020-03-17 16:00:00 17.3 18 Este 35 Nordeste 0 -- -- 43
2020-03-17 15:00:00 18.1 11 Nordeste 28 Este 0 -- -- 41
2020-03-17 14:00:00 16 12 Nordeste 27 Nordeste 0 -- -- 53
2020-03-17 13:00:00 15 15 Nordeste 26 Este 0 -- -- 51
2020-03-17 12:00:00 13 20 Nordeste 30 Nordeste 0 -- -- 63
2020-03-17 11:00:00 10.6 15 Nordeste 23 Este 0 -- -- 76
2020-03-17 10:00:00 8.6 14 Este 21 Este 0 -- -- 80
2020-03-17 09:00:00 7.9 9 Nordeste 15 Este 0 -- -- 86
2020-03-17 08:00:00 6.4 4 Nordeste 10 Nordeste 0 -- -- 90
2020-03-17 07:00:00 6.3 6 Nordeste 10 Nordeste 0.2 -- -- 94
2020-03-17 06:00:00 7.1 2 Norte 10 Nordeste 0 -- -- 95
2020-03-17 05:00:00 7.1 6 Nordeste 10 Nordeste 0.4 -- -- 94
2020-03-17 04:00:00 7 4 Nordeste 14 Nordeste 0 -- -- 95
2020-03-17 03:00:00 7.2 9 Nordeste 13 Nordeste 0.4 -- -- 94
2020-03-17 02:00:00 7.3 5 Este 13 Este 1.2 -- -- 93
2020-03-17 01:00:00 7.9 4 Este 8 Sudeste 0.2 -- -- 88
2020-03-17 00:00:00 7.9 0 Calma 3 Sudeste 0 -- -- 86
2020-03-16 23:00:00 7.7 2 Sur 10 Sudeste 0 -- -- 86
2020-03-16 22:00:00 7.7 4 Sur 12 Sudeste 0 -- -- 83
2020-03-16 21:00:00 7.6 6 Sur 12 Sur 0.2 -- -- 86
2020-03-16 20:00:00 7.8 3 Sur 15 Noroeste 0.4 -- -- 87
2020-03-16 19:00:00 9.1 0 Calma 6 Noroeste 0 -- -- 75
2020-03-16 18:00:00 9.2 6 Noroeste 17 Noroeste 0.4 -- -- 74
2020-03-16 17:00:00 10.2 12 Sudoeste 22 Sudoeste 0 -- -- 61
2020-03-16 16:00:00 10.5 4 Norte 13 Noroeste 0 -- -- 58
2020-03-16 15:00:00 10.6 9 Oeste 16 Oeste 0 -- -- 56
2020-03-16 14:00:00 10.4 5 Sudoeste 21 Sudoeste 0 -- -- 56
2020-03-16 13:00:00 10.8 8 Sudoeste 19 Oeste 0 -- -- 57
2020-03-16 12:00:00 9.6 8 Oeste 19 Oeste 0 -- -- 60
2020-03-16 11:00:00 9.1 13 Oeste 24 Oeste 0 -- -- 64
2020-03-16 10:00:00 8.7 13 Sudoeste 23 Sudoeste 0 -- -- 66
2020-03-16 09:00:00 7.7 10 Oeste 27 Oeste 0 -- -- 69
2020-03-16 08:00:00 6.3 11 Oeste 19 Oeste 0 -- -- 78
2020-03-16 07:00:00 7.2 0 Calma 8 Sur 0 -- -- 90
2020-03-16 06:00:00 7.2 3 Nordeste 24 Oeste 0.4 -- -- 85
2020-03-16 05:00:00 8.5 9 Noroeste 29 Noroeste 0.6 -- -- 77
2020-03-16 04:00:00 11.1 14 Noroeste 31 Oeste 0 -- -- 67
2020-03-16 03:00:00 12.4 11 Oeste 29 Oeste 0 -- -- 76
2020-03-16 02:00:00 13.6 18 Sudoeste 35 Sudoeste 0.4 -- -- 88
2020-03-16 01:00:00 14.4 17 Sudoeste 31 Sur 1.2 -- -- 86
2020-03-16 00:00:00 15.6 19 Sudoeste 33 Sudoeste 0 -- -- 75
2020-03-15 23:00:00 15.8 12 Sur 22 Sur 0 -- -- 67
2020-03-15 22:00:00 15.7 9 Sudoeste 14 Sudoeste 0 -- -- 68
2020-03-15 21:00:00 16.7 8 Sudoeste 13 Oeste 0 -- -- 68
2020-03-15 20:00:00 18.3 9 Sudoeste 17 Sudoeste 0 -- -- 61
2020-03-15 19:00:00 20.9 10 Sudoeste 25 Sudoeste 0 -- -- 52
2020-03-15 18:00:00 21.7 16 Sudoeste 29 Sudoeste 0 -- -- 48
2020-03-15 17:00:00 21.7 15 Sudoeste 26 Sudoeste 0 -- -- 50
2020-03-15 16:00:00 22.2 14 Sudoeste 27 Oeste 0 -- -- 49
2020-03-15 15:00:00 21.1 10 Sur 18 Sudoeste 0 -- -- 54
2020-03-15 14:00:00 19.1 4 Sudoeste 14 Oeste 0 -- -- 60
2020-03-15 13:00:00 17 0 Calma 6 Sudoeste 0 -- -- 69
2020-03-15 12:00:00 15.5 4 Sudoeste 7 Oeste 0 -- -- 75
2020-03-15 11:00:00 14.2 2 Sudoeste 6 Oeste 0 -- -- 79
2020-03-15 10:00:00 12.8 3 Nordeste 8 Norte 0 -- -- 88
2020-03-15 09:00:00 11.2 3 Nordeste 5 Norte 0 -- -- 90
2020-03-15 08:00:00 10.2 0 Calma 9 Norte 0 -- -- 93
2020-03-15 07:00:00 9.8 4 Norte 5 Norte 0 -- -- 91
2020-03-15 06:00:00 10.2 0 Calma 6 Este 0 -- -- 89
2020-03-15 05:00:00 10.7 0 Calma 5 Este 0 -- -- 88
2020-03-15 04:00:00 11.4 4 Nordeste 5 Norte 0 -- -- 88
2020-03-15 03:00:00 12.3 0 Calma 2 Oeste 0 -- -- 87
2020-03-15 02:00:00 12.9 0 Calma -- -- 0 -- -- 84
2020-03-15 01:00:00 13.7 3 Sudoeste 6 Sur 0 -- -- 83
2020-03-15 00:00:00 14.6 4 Sur 7 Sur 0 -- -- 81
2020-03-14 23:00:00 14.7 3 Sudeste 6 Sur 0 -- -- 78
2020-03-14 22:00:00 15.5 3 Sudoeste 8 Sudoeste 0 -- -- 76
2020-03-14 21:00:00 17.6 4 Sudoeste 11 Oeste 0 -- -- 71
2020-03-14 20:00:00 18.8 4 Noroeste 14 Oeste 0 -- -- 66
2020-03-14 19:00:00 20.8 10 Oeste 18 Oeste 0 -- -- 61
2020-03-14 18:00:00 22.3 13 Oeste 22 Oeste 0 -- -- 52
2020-03-14 17:00:00 23.2 9 Oeste 17 Oeste 0 -- -- 50
2020-03-14 16:00:00 22.2 5 Oeste 18 Oeste 0 -- -- 56
2020-03-14 15:00:00 21.4 6 Oeste 15 Oeste 0 -- -- 60
2020-03-14 14:00:00 20.1 6 Oeste 13 Oeste 0 -- -- 64
2020-03-14 13:00:00 18.2 3 Sudoeste 11 Noroeste 0 -- -- 72
2020-03-14 12:00:00 16.1 5 Noroeste 13 Oeste 0 -- -- 79
2020-03-14 11:00:00 14.3 4 Noroeste 10 Norte 0 -- -- 86
2020-03-14 10:00:00 13.2 4 Noroeste 10 Oeste 0 -- -- 90
2020-03-14 09:00:00 11.5 0 Calma 3 Nordeste 0 -- -- 95
2020-03-14 08:00:00 10.5 0 Calma 6 Noroeste 0 -- -- 94
2020-03-14 07:00:00 10.8 0 Calma 8 Sur 0 -- -- 91
2020-03-14 06:00:00 11.7 6 Sur 8 Sur 0 -- -- 92
2020-03-14 05:00:00 11.6 3 Sur 5 Oeste 0 -- -- 89
2020-03-14 04:00:00 11.9 3 Oeste 8 Sudoeste 0 -- -- 90
2020-03-14 03:00:00 12.6 5 Sudoeste 9 Sur 0 -- -- 89
2020-03-14 02:00:00 13.4 7 Sudoeste 10 Sur 0 -- -- 86
2020-03-14 01:00:00 14.2 7 Sudoeste 12 Sudoeste 0 -- -- 83
2020-03-14 00:00:00 15 7 Sur 10 Sur 0 -- -- 77
2020-03-13 23:00:00 15.6 5 Sudoeste 10 Sur 0 -- -- 74
2020-03-13 22:00:00 16.6 6 Sudoeste 11 Sudoeste 0 -- -- 69
2020-03-13 21:00:00 17.1 5 Sudoeste 10 Sudoeste 0 -- -- 66
2020-03-13 20:00:00 18.7 6 Sudoeste 15 Sudoeste 0 -- -- 62
2020-03-13 19:00:00 21 9 Sudoeste 25 Sudoeste 0 -- -- 55
2020-03-13 18:00:00 22.2 14 Sudoeste 25 Sudoeste 0 -- -- 50
2020-03-13 17:00:00 22.3 13 Sudoeste 25 Oeste 0 -- -- 50
2020-03-13 16:00:00 22 12 Sudoeste 26 Sudoeste 0 -- -- 50
2020-03-13 15:00:00 20.8 14 Sudoeste 23 Sudoeste 0 -- -- 54
2020-03-13 14:00:00 18.7 12 Sudoeste 25 Sudoeste 0 -- -- 60
2020-03-13 13:00:00 17.3 10 Oeste 19 Sudoeste 0 -- -- 68
2020-03-13 12:00:00 16.8 9 Sudoeste 18 Sudoeste 0 -- -- 73
2020-03-13 11:00:00 15.8 7 Sudoeste 14 Sudoeste 0 -- -- 73
2020-03-13 10:00:00 13.9 4 Sudoeste 6 Oeste 0 -- -- 78
2020-03-13 09:00:00 11.7 2 Nordeste 5 Norte 0 -- -- 85
2020-03-13 08:00:00 9.9 0 Calma 4 Este 0 -- -- 90
2020-03-13 07:00:00 10.2 4 Sudeste 5 Este 0 -- -- 87
2020-03-13 06:00:00 11.1 0 Calma 7 Norte 0 -- -- 85
2020-03-13 05:00:00 11.3 5 Norte 8 Norte 0 -- -- 83
2020-03-13 04:00:00 12.3 5 Norte 7 Norte 0 -- -- 79
2020-03-13 03:00:00 13.2 3 Sudeste 13 Sudoeste 0 -- -- 75
2020-03-13 02:00:00 14.3 5 Sudoeste 13 Sudoeste 0 -- -- 72
2020-03-13 01:00:00 15.5 8 Sudoeste 14 Sur 0 -- -- 71
2020-03-13 00:00:00 16.2 7 Sur 14 Sudoeste 0 -- -- 69
2020-03-12 23:00:00 17.3 9 Sudoeste 14 Sudoeste 0 -- -- 64
2020-03-12 22:00:00 18.2 8 Sur 15 Sudoeste 0 -- -- 63
2020-03-12 21:00:00 18.8 12 Oeste 22 Oeste 0 -- -- 60
2020-03-12 20:00:00 20.5 9 Oeste 17 Oeste 0 -- -- 54
2020-03-12 19:00:00 23.3 15 Oeste 30 Oeste 0 -- -- 45
2020-03-12 18:00:00 25.1 23 Oeste 32 Oeste 0 -- -- 38
2020-03-12 17:00:00 26.7 18 Oeste 25 Oeste 0 -- -- 36
2020-03-12 16:00:00 27.3 15 Oeste 23 Oeste 0 -- -- 34
2020-03-12 15:00:00 26.9 5 Sudoeste 18 Oeste 0 -- -- 31
2020-03-12 14:00:00 26.1 6 Sudoeste 17 Sudoeste 0 -- -- 32
2020-03-12 13:00:00 24.4 5 Sudoeste 10 Sur 0 -- -- 35
2020-03-12 12:00:00 22.1 3 Noroeste 7 Norte 0 -- -- 40
2020-03-12 11:00:00 20.6 2 Sudeste 6 Este 0 -- -- 48
2020-03-12 10:00:00 16 0 Calma 8 Norte 0 -- -- 58
2020-03-12 09:00:00 12.5 3 Norte 6 Norte 0 -- -- 67
2020-03-12 08:00:00 13.2 6 Nordeste 12 Nordeste 0 -- -- 64
2020-03-12 07:00:00 11.6 6 Norte 8 Norte 0 -- -- 71
2020-03-12 06:00:00 11.8 0 Calma 7 Oeste 0 -- -- 71
2020-03-12 05:00:00 13.3 8 Oeste 18 Nordeste 0 -- -- 64
2020-03-12 04:00:00 15.5 15 Nordeste 19 Nordeste 0 -- -- 58
2020-03-12 03:00:00 15.8 10 Norte 20 Nordeste 0 -- -- 58
2020-03-12 02:00:00 17.2 12 Nordeste 17 Nordeste 0 -- -- 54
2020-03-12 01:00:00 17.5 14 Nordeste 17 Nordeste 0 -- -- 56
2020-03-12 00:00:00 17.9 5 Nordeste 10 Nordeste 0 -- -- 54
2020-03-11 23:00:00 19.2 8 Este 12 Nordeste 0 -- -- 49
2020-03-11 22:00:00 19.4 0 Calma 3 Este 0 -- -- 45
2020-03-11 21:00:00 20.8 2 Sudeste 5 Este 0 -- -- 43
2020-03-11 20:00:00 22.9 4 Este 5 Este 0 -- -- 40
2020-03-11 19:00:00 26.3 0 Calma 5 Norte 0 -- -- 34
2020-03-11 18:00:00 26.8 3 Noroeste 12 Noroeste 0 -- -- 30
2020-03-11 17:00:00 27.2 9 Noroeste 15 Oeste 0 -- -- 34
2020-03-11 16:00:00 27.8 10 Oeste 18 Noroeste 0 -- -- 33
2020-03-11 15:00:00 27.5 10 Oeste 18 Oeste 0 -- -- 33
2020-03-11 14:00:00 26.5 6 Noroeste 12 Noroeste 0 -- -- 33
2020-03-11 13:00:00 24.8 6 Nordeste 10 Este 0 -- -- 37
2020-03-11 12:00:00 22.5 6 Nordeste 14 Nordeste 0 -- -- 42
2020-03-11 11:00:00 19.6 6 Nordeste 16 Nordeste 0 -- -- 48
2020-03-11 10:00:00 15.7 10 Nordeste 25 Nordeste 0 -- -- 59
2020-03-11 09:00:00 12.8 13 Nordeste 23 Este 0 -- -- 65
2020-03-11 08:00:00 10.3 10 Nordeste 18 Este 0 -- -- 71
2020-03-11 07:00:00 10.3 9 Nordeste 15 Norte 0 -- -- 70
2020-03-11 06:00:00 9.6 9 Norte 15 Norte 0 -- -- 72
2020-03-11 05:00:00 10.7 10 Nordeste 13 Nordeste 0 -- -- 68
2020-03-11 04:00:00 11.8 2 Este 9 Norte 0 -- -- 65
2020-03-11 03:00:00 12.4 7 Nordeste 9 Norte 0 -- -- 61
2020-03-11 02:00:00 13.1 4 Norte 8 Nordeste 0 -- -- 59
2020-03-11 01:00:00 13.8 3 Norte 8 Norte 0 -- -- 58
2020-03-11 00:00:00 14.6 0 Calma 6 Sudoeste 0 -- -- 57
2020-03-10 23:00:00 16.2 2 Sur 9 Nordeste 0 -- -- 52
2020-03-10 22:00:00 17.1 3 Sudeste 8 Este 0 -- -- 49
2020-03-10 21:00:00 19 0 Calma 8 Este 0 -- -- 46
2020-03-10 20:00:00 21.4 8 Este 9 Nordeste 0 -- -- 42
2020-03-10 19:00:00 25.6 2 Este 5 Este 0 -- -- 33
2020-03-10 18:00:00 26.4 2 Nordeste 13 Norte 0 -- -- 30
2020-03-10 17:00:00 25.8 6 Nordeste 18 Nordeste 0 -- -- 31
2020-03-10 16:00:00 25.3 5 Norte 22 Nordeste 0 -- -- 30
2020-03-10 15:00:00 23.7 13 Norte 25 Noroeste 0 -- -- 32
2020-03-10 14:00:00 22.9 12 Nordeste 21 Norte 0 -- -- 33
2020-03-10 13:00:00 21.7 12 Nordeste 26 Nordeste 0 -- -- 33
2020-03-10 12:00:00 19.8 10 Nordeste 21 Nordeste 0 -- -- 37
2020-03-10 11:00:00 17.3 10 Norte 22 Norte 0 -- -- 41
2020-03-10 10:00:00 15 12 Nordeste 20 Nordeste 0 -- -- 47
2020-03-10 09:00:00 11.1 6 Nordeste 15 Este 0 -- -- 62
2020-03-10 08:00:00 9.2 10 Nordeste 18 Nordeste 0 -- -- 63
2020-03-10 07:00:00 8.9 7 Nordeste 15 Nordeste 0 -- -- 64
2020-03-10 06:00:00 9 10 Norte 17 Nordeste 0 -- -- 66
2020-03-10 05:00:00 10.1 8 Nordeste 12 Nordeste 0 -- -- 63
2020-03-10 04:00:00 11.1 6 Nordeste 17 Nordeste 0 -- -- 62
2020-03-10 03:00:00 10.5 10 Nordeste 16 Nordeste 0 -- -- 63
2020-03-10 02:00:00 11.5 7 Nordeste 12 Norte 0 -- -- 59
2020-03-10 01:00:00 12.4 8 Norte 10 Norte 0 -- -- 56
2020-03-10 00:00:00 13 7 Nordeste 9 Nordeste 0 -- -- 55
2020-03-09 23:00:00 13.6 5 Norte 8 Norte 0 -- -- 53
2020-03-09 22:00:00 15.4 8 Norte 20 Norte 0 -- -- 48
2020-03-09 21:00:00 15.5 4 Norte 9 Nordeste 0 -- -- 53
2020-03-09 20:00:00 17.5 4 Oeste 9 Sudoeste 0 -- -- 49
2020-03-09 19:00:00 20.3 5 Sudoeste 13 Oeste 0 -- -- 43
2020-03-09 18:00:00 21.8 3 Oeste 13 Sudoeste 0 -- -- 33
2020-03-09 17:00:00 21.4 5 Sudoeste 12 Oeste 0 -- -- 31
2020-03-09 16:00:00 20.7 5 Norte 14 Norte 0 -- -- 30
2020-03-09 15:00:00 19.7 4 Nordeste 16 Oeste 0 -- -- 36
2020-03-09 14:00:00 19 6 Noroeste 17 Oeste 0 -- -- 44
2020-03-09 13:00:00 17.5 6 Sudoeste 14 Sudoeste 0 -- -- 50
2020-03-09 12:00:00 16.3 4 Norte 9 Oeste 0 -- -- 57
2020-03-09 11:00:00 14.5 4 Noroeste 9 Norte 0 -- -- 63
2020-03-09 10:00:00 11.2 3 Sudoeste 5 Sudoeste 0 -- -- 71
2020-03-09 09:00:00 8.6 3 Sur 5 Sur 0 -- -- 72
2020-03-09 08:00:00 6.4 2 Sudeste 5 Este 0 -- -- 77
2020-03-09 07:00:00 6.8 3 Oeste 5 Sudoeste 0 -- -- 74
2020-03-09 06:00:00 7.4 5 Este 8 Este 0 -- -- 74
2020-03-09 05:00:00 8.2 0 Calma 4 Sur 0 -- -- 69
2020-03-09 04:00:00 9.2 0 Calma 6 Este 0 -- -- 66
2020-03-09 03:00:00 10.7 4 Este 8 Este 0 -- -- 61
2020-03-09 02:00:00 11.8 4 Norte 10 Noroeste 0 -- -- 57
2020-03-09 01:00:00 12.1 4 Noroeste 9 Norte 0 -- -- 55
2020-03-09 00:00:00 13.6 4 Noroeste 12 Noroeste 0 -- -- 51
2020-03-08 23:00:00 14.1 2 Oeste 4 Oeste 0 -- -- 50
2020-03-08 22:00:00 15 0 Calma 6 Sudoeste 0 -- -- 48
2020-03-08 21:00:00 15.6 5 Sudeste 12 Oeste 0 -- -- 47
2020-03-08 20:00:00 16.9 9 Oeste 12 Oeste 0 -- -- 41
2020-03-08 19:00:00 20.2 8 Sudoeste 18 Oeste 0 -- -- 34
2020-03-08 18:00:00 22 13 Oeste 18 Oeste 0 -- -- 32
2020-03-08 17:00:00 22.4 10 Sur 16 Sur 0 -- -- 29
2020-03-08 16:00:00 22.1 4 Oeste 14 Oeste 0 -- -- 29
2020-03-08 15:00:00 20.4 6 Norte 13 Norte 0 -- -- 30
2020-03-08 14:00:00 19.1 6 Nordeste 14 Este 0 -- -- 38
2020-03-08 13:00:00 17.9 5 Este 15 Norte 0 -- -- 42
2020-03-08 12:00:00 16.1 9 Nordeste 15 Este 0 -- -- 46
2020-03-08 11:00:00 12.8 10 Nordeste 15 Norte 0 -- -- 57
2020-03-08 10:00:00 9.3 7 Norte 18 Nordeste 0 -- -- 68
2020-03-08 09:00:00 5.8 8 Norte 15 Nordeste 0 -- -- 78
2020-03-08 08:00:00 3.7 8 Nordeste 14 Nordeste 0 -- -- 81
2020-03-08 07:00:00 4.6 9 Nordeste 14 Nordeste 0 -- -- 75
2020-03-08 06:00:00 5.2 7 Nordeste 9 Nordeste 0 -- -- 74
2020-03-08 05:00:00 6.2 8 Nordeste 13 Norte 0 -- -- 71
2020-03-08 04:00:00 6.4 6 Norte 9 Nordeste 0 -- -- 67
2020-03-08 03:00:00 7.3 7 Norte 9 Norte 0 -- -- 64
2020-03-08 02:00:00 8.7 4 Nordeste 11 Nordeste 0 -- -- 59
2020-03-08 01:00:00 8.8 10 Nordeste 14 Norte 0 -- -- 58
2020-03-08 00:00:00 9.5 5 Norte 8 Nordeste 0 -- -- 56
2020-03-07 23:00:00 10.7 3 Nordeste 5 Este 0 -- -- 52
2020-03-07 22:00:00 11.1 0 Calma 12 Este 0 -- -- 52
2020-03-07 21:00:00 12.3 5 Este 9 Nordeste 0 -- -- 47
2020-03-07 20:00:00 14 5 Este 11 Este 0 -- -- 44
2020-03-07 19:00:00 17 8 Este 18 Este 0 -- -- 37
2020-03-07 18:00:00 17.8 11 Nordeste 22 Nordeste 0 -- -- 35
2020-03-07 17:00:00 17.9 10 Nordeste 22 Nordeste 0 -- -- 34
2020-03-07 16:00:00 17.5 11 Nordeste 28 Nordeste 0 -- -- 35
2020-03-07 15:00:00 16.9 15 Nordeste 29 Este 0 -- -- 35
2020-03-07 14:00:00 16 17 Nordeste 30 Nordeste 0 -- -- 38
2020-03-07 13:00:00 14.8 19 Nordeste 28 Nordeste 0 -- -- 39
2020-03-07 12:00:00 13.7 18 Nordeste 26 Nordeste 0 -- -- 40
2020-03-07 11:00:00 12.6 15 Nordeste 30 Nordeste 0 -- -- 44
2020-03-07 10:00:00 10.2 18 Este 30 Este 0 -- -- 57
2020-03-07 09:00:00 4.8 9 Nordeste 14 Norte 0 -- -- 82
2020-03-07 08:00:00 3.5 7 Nordeste 12 Nordeste 0 -- -- 83
2020-03-07 07:00:00 3.2 9 Nordeste 13 Nordeste 0 -- -- 83
2020-03-07 06:00:00 3.9 6 Norte 8 Norte 0 -- -- 77
2020-03-07 05:00:00 4.8 3 Norte 5 Norte 0 -- -- 75
2020-03-07 04:00:00 5.4 3 Este 6 Este 0 -- -- 73
2020-03-07 03:00:00 5.5 0 Calma 8 Este 0 -- -- 72
2020-03-07 02:00:00 5.9 2 Sudoeste 10 Sudeste 0 -- -- 70
2020-03-07 01:00:00 6.2 3 Oeste 8 Norte 0 -- -- 70
2020-03-07 00:00:00 8.2 4 Nordeste 8 Este 0 -- -- 62
2020-03-06 23:00:00 9 2 Norte 11 Noroeste 0 -- -- 59
2020-03-06 22:00:00 10.5 6 Norte 13 Noroeste 0 -- -- 53
2020-03-06 21:00:00 11.9 4 Noroeste 14 Noroeste 0 -- -- 48
2020-03-06 20:00:00 12.8 4 Noroeste 24 Noroeste 0 -- -- 46
2020-03-06 19:00:00 15.3 8 Noroeste 25 Noroeste 0 -- -- 42
2020-03-06 18:00:00 17 12 Noroeste 30 Noroeste 0 -- -- 39
2020-03-06 17:00:00 17.2 15 Noroeste 39 Noroeste 0 -- -- 37
2020-03-06 16:00:00 17.6 14 Noroeste 38 Oeste 0 -- -- 35
2020-03-06 15:00:00 16.6 22 Oeste 42 Oeste 0 -- -- 42
2020-03-06 14:00:00 15.1 25 Oeste 41 Oeste 0 -- -- 54
2020-03-06 13:00:00 13.9 24 Sudoeste 41 Sudoeste 0 -- -- 59
2020-03-06 12:00:00 12.5 23 Sudoeste 35 Sudoeste 0 -- -- 71
2020-03-06 11:00:00 10.6 10 Sudoeste 22 Sur 0 -- -- 79
2020-03-06 10:00:00 8.6 11 Sudoeste 19 Sudoeste 0 -- -- 86
2020-03-06 09:00:00 6.9 9 Sur 18 Sur 0 -- -- 89
2020-03-06 08:00:00 5.8 6 Sudoeste 15 Sudoeste 0 -- -- 91
2020-03-06 07:00:00 6 7 Sudoeste 12 Sudoeste 0 -- -- 91
2020-03-06 06:00:00 5.7 4 Sudoeste 9 Sudoeste 0 -- -- 91
2020-03-06 05:00:00 5.9 4 Sudoeste 9 Oeste 0 -- -- 88
2020-03-06 04:00:00 6.6 5 Oeste 12 Oeste 0 -- -- 86
2020-03-06 03:00:00 7.6 12 Oeste 15 Oeste 0 -- -- 82
2020-03-06 02:00:00 8.6 7 Oeste 18 Oeste 0 -- -- 77
2020-03-06 01:00:00 10.1 15 Oeste 24 Oeste 0 -- -- 71
2020-03-06 00:00:00 10.8 20 Oeste 26 Oeste 0 -- -- 69
2020-03-05 23:00:00 11.7 16 Oeste 22 Oeste 0 -- -- 65
2020-03-05 22:00:00 11.8 15 Oeste 18 Oeste 0 -- -- 64
2020-03-05 21:00:00 13.3 13 Oeste 21 Oeste 0 -- -- 60
2020-03-05 20:00:00 14.8 14 Oeste 21 Oeste 0 -- -- 56
2020-03-05 19:00:00 16.3 15 Oeste 30 Oeste 0 -- -- 55
2020-03-05 18:00:00 16.9 20 Oeste 35 Oeste 0 -- -- 57
2020-03-05 17:00:00 16.8 19 Sudoeste 36 Oeste 0 -- -- 69
2020-03-05 16:00:00 14.9 18 Sudoeste 30 Sudoeste 0 -- -- 80
2020-03-05 15:00:00 13.8 19 Sudoeste 33 Sudoeste 0 -- -- 84
2020-03-05 14:00:00 13.8 17 Sudoeste 35 Sudoeste 0 -- -- 82
2020-03-05 13:00:00 14.7 17 Sudoeste 28 Sudoeste 0 -- -- 77
2020-03-05 12:00:00 14.7 17 Sudoeste 28 Sudoeste 0 -- -- 76
2020-03-05 11:00:00 13.5 15 Sudoeste 24 Sudoeste 0 -- -- 82
2020-03-05 10:00:00 10.2 5 Sur 8 Sur 0 -- -- 94
2020-03-05 09:00:00 8 0 Calma 5 Sur 0 -- -- 94
2020-03-05 08:00:00 6.5 0 Calma 5 Sudoeste 0 -- -- 93
2020-03-05 07:00:00 6.6 0 Calma 5 Sudeste 0 -- -- 91
2020-03-05 06:00:00 7.2 0 Calma 4 Noroeste 0 -- -- 90
2020-03-05 05:00:00 7.8 4 Sudoeste 8 Sur 0 -- -- 88
2020-03-05 04:00:00 8.9 6 Sur 8 Sur 0 -- -- 86
2020-03-05 03:00:00 9.3 3 Sudoeste 4 Sudoeste 0 -- -- 83
2020-03-05 02:00:00 9.7 0 Calma 3 Sur 0 -- -- 81
2020-03-05 01:00:00 10.5 0 Calma 4 Sur 0 -- -- 79
2020-03-05 00:00:00 11.1 2 Sur 5 Sudoeste 0 -- -- 77
2020-03-04 23:00:00 12.7 0 Calma 4 Sur 0 -- -- 71
2020-03-04 22:00:00 14.3 2 Este 14 Noroeste 0 -- -- 65
2020-03-04 21:00:00 15.4 8 Noroeste 15 Noroeste 0 -- -- 62
2020-03-04 20:00:00 16.5 5 Noroeste 15 Noroeste 0 -- -- 60
2020-03-04 19:00:00 18.2 4 Noroeste 14 Noroeste 0 -- -- 55
2020-03-04 18:00:00 19.8 11 Oeste 17 Noroeste 0 -- -- 49
2020-03-04 17:00:00 19.6 12 Oeste 19 Sudoeste 0 -- -- 50
2020-03-04 16:00:00 19.3 6 Oeste 21 Oeste 0 -- -- 56
2020-03-04 15:00:00 19 8 Sudoeste 23 Sudoeste 0 -- -- 56
2020-03-04 14:00:00 18.8 9 Sudoeste 19 Oeste 0 -- -- 56
2020-03-04 13:00:00 17.8 8 Sudoeste 23 Oeste 0 -- -- 59
2020-03-04 12:00:00 16.3 9 Oeste 19 Oeste 0 -- -- 66
2020-03-04 11:00:00 15.5 9 Oeste 17 Oeste 0 -- -- 78
2020-03-04 10:00:00 13.9 4 Sur 8 Sur 0 -- -- 96
2020-03-04 09:00:00 13.2 5 Sudoeste 11 Sudoeste 0 -- -- 98
2020-03-04 08:00:00 13.1 5 Sudoeste 9 Oeste 0.2 -- -- 97
2020-03-04 07:00:00 13.3 5 Sudoeste 11 Sudoeste 0 -- -- 95
2020-03-04 06:00:00 13.3 6 Sudoeste 14 Sudoeste 0 -- -- 95
2020-03-04 05:00:00 13.5 8 Sudoeste 13 Sudoeste 0 -- -- 94
2020-03-04 04:00:00 13.6 8 Sudoeste 13 Sudoeste 0 -- -- 93
2020-03-04 03:00:00 13.6 6 Sudoeste 14 Sudoeste 0 -- -- 93
2020-03-04 02:00:00 13.5 6 Sudoeste 24 Sudoeste 0 -- -- 91
2020-03-04 01:00:00 13.6 11 Sudoeste 21 Sudoeste 0 -- -- 90
2020-03-04 00:00:00 13.7 10 Sudoeste 24 Sudoeste 0 -- -- 86
2020-03-03 23:00:00 14 12 Sudoeste 26 Sudoeste 0 -- -- 82
2020-03-03 22:00:00 14.4 16 Sudoeste 27 Sudoeste 0 -- -- 79
2020-03-03 21:00:00 14.8 14 Sudoeste 26 Sudoeste 0 -- -- 76
2020-03-03 20:00:00 15.4 12 Sudoeste 29 Sudoeste 0 -- -- 71
2020-03-03 19:00:00 15.8 14 Sudoeste 26 Sudoeste 0 -- -- 69
2020-03-03 18:00:00 16.1 15 Sudoeste 30 Sudoeste 0 -- -- 64
2020-03-03 17:00:00 16.2 14 Sudoeste 28 Sudoeste 0 -- -- 62
2020-03-03 16:00:00 15.8 15 Sudoeste 30 Sudoeste 0 -- -- 59
2020-03-03 15:00:00 16.1 17 Sudoeste 35 Sudoeste 0 -- -- 57
2020-03-03 14:00:00 15.6 19 Sudoeste 35 Sudoeste 0 -- -- 55
2020-03-03 13:00:00 14.6 17 Sudoeste 27 Sudoeste 0 -- -- 59
2020-03-03 12:00:00 12.5 14 Sudoeste 22 Sudoeste 0 -- -- 65
2020-03-03 11:00:00 10.7 10 Sudoeste 19 Sudoeste 0 -- -- 80
2020-03-03 10:00:00 9 7 Sur 12 Sur 0 -- -- 84
2020-03-03 09:00:00 7.1 6 Sur 8 Sudoeste 0 -- -- 88
2020-03-03 08:00:00 6.8 5 Sur 8 Sudoeste 0 -- -- 87
2020-03-03 07:00:00 6.2 3 Sudoeste 9 Sudoeste 0 -- -- 87
2020-03-03 06:00:00 7 4 Sur 5 Sur 0 -- -- 85
2020-03-03 05:00:00 7.2 0 Calma 6 Sur 0 -- -- 83
2020-03-03 04:00:00 7.4 3 Sudoeste 6 Oeste 0 -- -- 81
2020-03-03 03:00:00 8.4 4 Oeste 15 Oeste 0 -- -- 78
2020-03-03 02:00:00 9.6 5 Oeste 10 Oeste 0 -- -- 72
2020-03-03 01:00:00 10.2 12 Oeste 20 Oeste 0 -- -- 69
2020-03-03 00:00:00 10.5 7 Sudoeste 19 Oeste 0 -- -- 68